aviador You're here:

KAUO Decoded Metar

AUBURN OPELIKA A in AL, USA
Report Time2017-08-19 10:56:00
UTC Time2017-08-19 11:11:06
Flight Rules vfr VFR
WindCalm
Visibility9999 m
Phenomena:N/A
Clouds:N/A
Expected CloudBase > 400 ft AGL from Temp-Dew spread
CeilingNone
Temp22°C (ISA +9)
Dew Point21°C (94% RH)
QNH1017 hPa
Density Alt1,965 ft
Elevation774 ft
Report Wrong Elevation
Raw Report
METAR KAUO 191056Z AUTO 00000KT 10SM CLR 22/21 A3002 RMK AO2 SLP175
T02170206=

Extra information for KAUO:More info

Metar Taf Metar & Taf Last 4 Metars F.Rules Stats Wind Profile Meteogram Temp Stats Airport Information Weather charts Add Link Nearby VenuesMetar ALERT Operation Metar Decoded Social comments

AIRNAV info for KAUO